createdAt,value
2023-04-03T00:02:11.728Z,8.83
2023-04-03T00:04:40.963Z,8.89
2023-04-03T00:07:11.246Z,8.89
2023-04-03T00:09:39.904Z,8.80
2023-04-03T00:12:08.581Z,8.79
2023-04-03T00:14:37.150Z,8.76
2023-04-03T00:17:05.971Z,8.73
2023-04-03T00:19:34.713Z,8.70
2023-04-03T00:22:03.336Z,8.76
2023-04-03T00:24:33.242Z,8.71
2023-04-03T00:27:01.819Z,8.70
2023-04-03T00:29:30.406Z,8.68
2023-04-03T00:31:58.970Z,8.66
2023-04-03T00:34:27.544Z,8.52
2023-04-03T00:36:56.243Z,8.50
2023-04-03T00:39:24.923Z,8.56
2023-04-03T00:41:54.855Z,8.63
2023-04-03T00:44:44.759Z,8.63
2023-04-03T00:47:16.843Z,8.63
2023-04-03T00:49:46.574Z,8.61
2023-04-03T00:52:18.506Z,8.55
2023-04-03T00:54:50.787Z,8.50
2023-04-03T00:57:21.068Z,8.49
2023-04-03T00:59:54.339Z,8.49
2023-04-03T01:02:22.995Z,8.48
2023-04-03T01:04:51.879Z,8.45
2023-04-03T01:07:23.968Z,8.47
2023-04-03T01:09:55.682Z,8.44
2023-04-03T01:12:28.002Z,8.43
2023-04-03T01:14:58.368Z,8.41
2023-04-03T01:17:31.554Z,8.42
2023-04-03T01:20:31.557Z,8.43
2023-04-03T01:23:08.691Z,8.40
2023-04-03T01:25:39.646Z,8.43
2023-04-03T01:28:12.686Z,8.44
2023-04-03T01:30:49.703Z,8.43
2023-04-03T01:33:19.802Z,8.44
2023-04-03T01:35:48.389Z,8.40
2023-04-03T01:38:17.074Z,8.36
2023-04-03T01:40:45.849Z,8.34
2023-04-03T01:43:14.487Z,8.31
2023-04-03T01:45:43.104Z,8.30
2023-04-03T01:48:11.804Z,8.26
2023-04-03T01:50:41.749Z,8.24
2023-04-03T01:53:10.612Z,8.19
2023-04-03T01:55:39.209Z,8.19
2023-04-03T01:58:07.842Z,8.19
2023-04-03T02:00:37.661Z,8.17
2023-04-03T02:03:07.928Z,8.16
2023-04-03T02:05:36.902Z,8.16
2023-04-03T02:08:07.211Z,8.12
2023-04-03T02:10:36.115Z,8.11
2023-04-03T02:13:04.952Z,8.16
2023-04-03T02:15:33.568Z,8.09
2023-04-03T02:18:02.151Z,8.02
2023-04-03T02:20:36.716Z,8.06
2023-04-03T02:23:07.502Z,8.01
2023-04-03T02:25:38.599Z,8.02
2023-04-03T02:28:07.816Z,8.00
2023-04-03T02:30:36.690Z,7.96
2023-04-03T02:33:05.632Z,7.90
2023-04-03T02:35:34.287Z,7.85
2023-04-03T02:38:02.922Z,7.86
2023-04-03T02:40:32.870Z,7.88
2023-04-03T02:43:01.466Z,7.90
2023-04-03T02:45:30.224Z,7.85
2023-04-03T02:47:58.852Z,7.79
2023-04-03T02:50:27.477Z,7.76
2023-04-03T02:52:56.245Z,7.75
2023-04-03T02:55:24.853Z,7.77
2023-04-03T02:57:54.791Z,7.66
2023-04-03T03:00:23.696Z,7.74
2023-04-03T03:02:52.476Z,7.72
2023-04-03T03:05:21.259Z,7.67
2023-04-03T03:07:49.920Z,7.68
2023-04-03T03:10:18.625Z,7.70
2023-04-03T03:12:47.387Z,7.68
2023-04-03T03:15:18.371Z,7.69
2023-04-03T03:17:47.243Z,7.68
2023-04-03T03:20:16.590Z,7.68
2023-04-03T03:22:45.284Z,7.70
2023-04-03T03:25:13.918Z,7.66
2023-04-03T03:27:42.853Z,7.65
2023-04-03T03:30:12.087Z,7.64
2023-04-03T03:32:42.075Z,7.47
2023-04-03T03:35:11.298Z,7.62
2023-04-03T03:37:39.895Z,7.52
2023-04-03T03:40:09.894Z,7.52
2023-04-03T03:42:38.433Z,7.56
2023-04-03T03:45:08.335Z,7.50
2023-04-03T03:47:36.935Z,7.48
2023-04-03T03:50:08.338Z,7.50
2023-04-03T03:52:36.996Z,7.55
2023-04-03T03:55:06.002Z,7.51
2023-04-03T03:57:34.708Z,7.43
2023-04-03T04:00:03.401Z,7.08
2023-04-03T04:02:32.107Z,6.87
2023-04-03T04:05:00.802Z,7.02
2023-04-03T04:07:30.777Z,6.47
2023-04-03T04:09:59.334Z,5.57
2023-04-03T04:12:27.940Z,5.94
2023-04-03T04:14:56.469Z,6.48
2023-04-03T04:17:25.117Z,6.72
2023-04-03T04:19:53.705Z,5.91
2023-04-03T04:22:22.311Z,6.12
2023-04-03T04:24:52.262Z,6.33
2023-04-03T04:27:20.859Z,6.52
2023-04-03T04:29:49.414Z,6.65
2023-04-03T04:32:18.020Z,6.74
2023-04-03T04:34:46.576Z,6.04
2023-04-03T04:37:15.171Z,6.53
2023-04-03T04:39:43.733Z,6.13
2023-04-03T04:42:15.109Z,5.32
2023-04-03T04:44:45.845Z,6.17
2023-04-03T04:47:14.445Z,6.68
2023-04-03T04:49:43.092Z,5.97
2023-04-03T04:52:11.728Z,5.87
2023-04-03T04:54:40.452Z,6.06
2023-04-03T04:57:09.166Z,6.03
2023-04-03T04:59:39.228Z,6.19
2023-04-03T05:02:07.890Z,6.45
2023-04-03T05:04:36.543Z,6.35
2023-04-03T05:07:05.154Z,6.50
2023-04-03T05:09:33.761Z,6.12
2023-04-03T05:12:03.966Z,5.71
2023-04-03T05:14:32.541Z,5.57
2023-04-03T05:17:02.508Z,6.46
2023-04-03T05:19:31.096Z,6.65
2023-04-03T05:21:59.678Z,6.72
2023-04-03T05:24:28.302Z,6.67
2023-04-03T05:26:56.888Z,6.67
2023-04-03T05:29:25.449Z,7.13
2023-04-03T05:31:54.205Z,6.59
2023-04-03T05:34:24.223Z,6.80
2023-04-03T05:36:52.806Z,6.82
2023-04-03T05:39:22.144Z,6.60
2023-04-03T05:41:50.918Z,7.81
2023-04-03T05:44:19.485Z,8.56
2023-04-03T05:46:48.204Z,8.89
2023-04-03T05:49:16.770Z,8.10
2023-04-03T05:51:46.877Z,7.48
2023-04-03T05:54:19.866Z,8.91
2023-04-03T05:56:48.600Z,8.55
2023-04-03T05:59:17.724Z,8.35
2023-04-03T06:01:46.824Z,9.19
2023-04-03T06:04:16.193Z,8.89
2023-04-03T06:06:52.475Z,8.65
2023-04-03T06:09:22.633Z,9.10
2023-04-03T06:11:51.371Z,8.21
2023-04-03T06:14:19.963Z,8.31
2023-04-03T06:16:49.423Z,8.60
2023-04-03T06:19:18.100Z,8.74
2023-04-03T06:21:46.749Z,8.06
2023-04-03T06:24:18.957Z,9.42
2023-04-03T06:26:47.742Z,8.43
2023-04-03T06:29:16.664Z,9.50
2023-04-03T06:31:45.560Z,7.19
2023-04-03T06:34:14.803Z,8.16
2023-04-03T06:36:44.174Z,9.20
2023-04-03T06:39:18.952Z,8.62
2023-04-03T06:41:47.539Z,9.60
2023-04-03T06:44:17.128Z,7.51
2023-04-03T06:46:47.546Z,7.42
2023-04-03T06:49:16.476Z,7.07
2023-04-03T06:51:45.075Z,7.94
2023-04-03T06:54:13.717Z,7.19
2023-04-03T06:56:43.896Z,7.60
2023-04-03T06:59:14.031Z,7.49
2023-04-03T07:01:43.312Z,8.39
2023-04-03T07:04:11.880Z,8.27
2023-04-03T07:06:40.534Z,8.57
2023-04-03T07:09:09.112Z,7.68
2023-04-03T07:11:38.160Z,7.98
2023-04-03T07:14:08.855Z,8.27
2023-04-03T07:16:40.012Z,7.13
2023-04-03T07:19:10.016Z,8.29
2023-04-03T07:21:38.849Z,8.83
2023-04-03T07:24:10.025Z,9.29
2023-04-03T07:26:42.120Z,8.55
2023-04-03T07:29:12.062Z,8.02
2023-04-03T07:31:42.715Z,8.52
2023-04-03T07:34:11.319Z,8.77
2023-04-03T07:36:39.966Z,8.11
2023-04-03T07:39:09.253Z,7.80
2023-04-03T07:41:38.027Z,8.67
2023-04-03T07:44:06.764Z,8.52
2023-04-03T07:46:36.730Z,8.90
2023-04-03T07:49:05.508Z,9.07
2023-04-03T07:51:34.325Z,9.36
2023-04-03T07:54:02.951Z,9.27
2023-04-03T07:56:31.584Z,9.11
2023-04-03T07:59:00.157Z,7.98
2023-04-03T08:01:28.762Z,7.92
2023-04-03T08:03:58.914Z,7.98
2023-04-03T08:06:42.108Z,8.60
2023-04-03T08:09:15.402Z,8.45
2023-04-03T08:11:44.099Z,8.87
2023-04-03T08:14:17.385Z,8.65
2023-04-03T08:16:47.128Z,8.31
2023-04-03T08:19:26.299Z,8.50
2023-04-03T08:21:56.206Z,9.88
2023-04-03T08:24:24.927Z,9.30
2023-04-03T08:26:53.556Z,8.23
2023-04-03T08:29:22.989Z,8.82
2023-04-03T08:31:51.892Z,8.55
2023-04-03T08:34:22.548Z,8.59
2023-04-03T08:36:51.362Z,8.63
2023-04-03T08:39:19.978Z,8.25
2023-04-03T08:41:49.773Z,7.64
2023-04-03T08:44:27.788Z,9.02
2023-04-03T08:47:17.406Z,8.87
2023-04-03T08:49:52.327Z,8.11
2023-04-03T08:52:25.142Z,8.94
2023-04-03T08:54:56.953Z,8.64
2023-04-03T08:57:31.656Z,8.16
2023-04-03T09:00:04.023Z,9.77
2023-04-03T09:02:36.995Z,9.41
2023-04-03T09:05:15.191Z,8.60
2023-04-03T09:07:49.356Z,8.78
2023-04-03T09:10:23.850Z,9.65
2023-04-03T09:13:01.832Z,9.72
2023-04-03T09:15:38.284Z,8.83
2023-04-03T09:18:15.614Z,9.18
2023-04-03T09:20:52.208Z,9.49
2023-04-03T09:23:26.478Z,9.83
2023-04-03T09:26:00.028Z,8.25
2023-04-03T09:28:33.071Z,9.10
2023-04-03T09:31:16.205Z,8.64
2023-04-03T09:33:45.346Z,8.89
2023-04-03T09:36:15.614Z,9.99
2023-04-03T09:38:44.215Z,9.51
2023-04-03T09:41:19.069Z,9.56
2023-04-03T09:43:56.955Z,9.40
2023-04-03T09:46:31.398Z,9.00
2023-04-03T09:49:08.835Z,8.49
2023-04-03T09:51:39.505Z,8.58
2023-04-03T09:54:27.455Z,8.36
2023-04-03T09:56:57.677Z,9.00
2023-04-03T09:59:26.518Z,8.24
2023-04-03T10:02:02.796Z,8.57
2023-04-03T10:04:41.324Z,8.89
2023-04-03T10:07:30.374Z,9.31
2023-04-03T10:10:00.192Z,9.40
2023-04-03T10:12:28.757Z,9.19
2023-04-03T10:14:59.028Z,9.08
2023-04-03T10:17:43.624Z,9.32
2023-04-03T10:20:26.150Z,9.08
2023-04-03T10:23:05.146Z,9.04
2023-04-03T10:25:42.489Z,9.30
2023-04-03T10:28:19.872Z,9.29
2023-04-03T10:30:57.014Z,9.29
2023-04-03T10:33:42.251Z,9.06
2023-04-03T10:36:20.185Z,9.12
2023-04-03T10:38:59.698Z,9.17
2023-04-03T10:41:41.559Z,9.26
2023-04-03T10:44:22.759Z,8.29
2023-04-03T10:46:55.297Z,9.44
2023-04-03T10:49:42.505Z,9.03
2023-04-03T10:52:22.155Z,10.14
2023-04-03T10:55:05.079Z,9.33
2023-04-03T10:57:33.778Z,8.70
2023-04-03T11:00:09.613Z,9.73
2023-04-03T11:02:43.258Z,10.18
2023-04-03T11:05:20.945Z,9.69
2023-04-03T11:07:53.633Z,10.13
2023-04-03T11:10:31.640Z,9.28
2023-04-03T11:13:10.429Z,9.82
2023-04-03T11:15:39.483Z,8.78
2023-04-03T11:18:13.314Z,9.89
2023-04-03T11:20:50.738Z,9.23
2023-04-03T11:23:28.439Z,9.07
2023-04-03T11:26:12.060Z,8.66
2023-04-03T11:28:41.782Z,9.19
2023-04-03T11:31:25.075Z,9.03
2023-04-03T11:34:06.132Z,9.68
2023-04-03T11:36:41.710Z,8.78
2023-04-03T11:39:20.340Z,8.48
2023-04-03T11:41:53.436Z,8.59
2023-04-03T11:44:37.382Z,8.74
2023-04-03T11:47:07.404Z,8.97
2023-04-03T11:49:57.720Z,9.48
2023-04-03T11:53:01.398Z,9.15
2023-04-03T11:56:02.575Z,8.95
2023-04-03T11:58:34.896Z,8.78
2023-04-03T12:01:14.240Z,9.24
2023-04-03T12:04:08.099Z,9.60
2023-04-03T12:07:15.869Z,9.12
2023-04-03T12:10:30.814Z,9.47
2023-04-03T12:13:05.010Z,9.15
2023-04-03T12:15:58.174Z,9.32
2023-04-03T12:19:04.820Z,9.34
2023-04-03T12:22:11.105Z,9.23
2023-04-03T12:24:41.497Z,8.93
2023-04-03T12:27:23.628Z,8.66
2023-04-03T12:30:02.259Z,9.41
2023-04-03T12:33:12.357Z,9.39
2023-04-03T12:35:50.071Z,9.25
2023-04-03T12:39:03.428Z,8.69
2023-04-03T12:41:40.354Z,8.98
2023-04-03T12:44:42.680Z,8.78
2023-04-03T12:47:25.576Z,8.91
2023-04-03T12:49:57.987Z,9.17
2023-04-03T12:52:35.253Z,9.06
2023-04-03T12:55:06.067Z,8.82
2023-04-03T12:57:34.747Z,9.00
2023-04-03T13:00:20.607Z,8.92
2023-04-03T13:02:49.863Z,9.50
2023-04-03T13:05:21.621Z,9.57
2023-04-03T13:07:54.612Z,9.81
2023-04-03T13:10:23.584Z,9.62
2023-04-03T13:12:53.786Z,8.78
2023-04-03T13:15:25.783Z,9.01
2023-04-03T13:17:55.649Z,9.37
2023-04-03T13:20:28.576Z,9.12
2023-04-03T13:23:01.880Z,9.15
2023-04-03T13:25:33.474Z,9.34
2023-04-03T13:28:13.478Z,9.70
2023-04-03T13:30:56.080Z,9.13
2023-04-03T13:33:27.278Z,9.53
2023-04-03T13:36:06.173Z,8.96
2023-04-03T13:38:37.568Z,8.70
2023-04-03T13:41:25.041Z,9.52
2023-04-03T13:43:57.689Z,9.58
2023-04-03T13:46:32.154Z,9.37
2023-04-03T13:49:18.894Z,9.57
2023-04-03T13:51:54.179Z,9.74
2023-04-03T13:54:36.880Z,9.62
2023-04-03T13:57:13.803Z,9.27
2023-04-03T13:59:42.454Z,9.11
2023-04-03T14:02:19.066Z,9.71
2023-04-03T14:04:51.763Z,9.62
2023-04-03T14:07:22.437Z,9.88
2023-04-03T14:09:51.563Z,9.25
2023-04-03T14:12:31.496Z,9.00
2023-04-03T14:15:02.466Z,9.58
2023-04-03T14:17:31.217Z,9.61
2023-04-03T14:20:02.034Z,9.80
2023-04-03T14:22:34.569Z,9.42
2023-04-03T14:25:04.254Z,9.29
2023-04-03T14:27:38.513Z,9.43
2023-04-03T14:30:10.077Z,8.73
2023-04-03T14:32:38.673Z,9.73
2023-04-03T14:35:07.872Z,9.64
2023-04-03T14:37:37.915Z,9.36
2023-04-03T14:40:08.324Z,9.19
2023-04-03T14:42:39.213Z,9.14
2023-04-03T14:45:11.202Z,9.43
2023-04-03T14:47:44.520Z,9.46
2023-04-03T14:50:18.125Z,9.19
2023-04-03T14:52:48.430Z,9.62
2023-04-03T14:55:19.306Z,9.79
2023-04-03T14:57:48.286Z,9.78
2023-04-03T15:00:19.530Z,9.23
2023-04-03T15:02:49.754Z,8.85
2023-04-03T15:05:20.540Z,8.92
2023-04-03T15:07:55.366Z,9.24
2023-04-03T15:10:26.222Z,8.88
2023-04-03T15:12:55.313Z,9.18
2023-04-03T15:15:25.176Z,9.38
2023-04-03T15:17:55.876Z,9.03
2023-04-03T15:20:27.334Z,9.44
2023-04-03T15:22:58.230Z,9.55
2023-04-03T15:25:27.905Z,9.81
2023-04-03T15:27:57.234Z,9.14
2023-04-03T15:30:25.947Z,9.66
2023-04-03T15:32:55.172Z,9.43
2023-04-03T15:35:23.843Z,9.82
2023-04-03T15:37:52.829Z,9.83
2023-04-03T15:40:22.819Z,9.30
2023-04-03T15:42:53.150Z,9.30
2023-04-03T15:45:23.280Z,9.44
2023-04-03T15:47:52.108Z,9.82
2023-04-03T15:50:23.824Z,9.68
2023-04-03T15:52:55.314Z,8.77
2023-04-03T15:55:26.362Z,8.42
2023-04-03T15:57:55.573Z,9.00
2023-04-03T16:00:25.025Z,8.46
2023-04-03T16:02:58.347Z,8.95
2023-04-03T16:05:27.681Z,9.65
2023-04-03T16:07:56.336Z,9.10
2023-04-03T16:10:27.328Z,8.59
2023-04-03T16:12:55.962Z,8.76
2023-04-03T16:15:25.231Z,8.80
2023-04-03T16:17:54.571Z,8.44
2023-04-03T16:20:23.690Z,8.64
2023-04-03T16:22:52.579Z,8.72
2023-04-03T16:25:21.656Z,9.51
2023-04-03T16:27:51.709Z,8.67
2023-04-03T16:30:20.456Z,8.56
2023-04-03T16:32:49.470Z,9.43
2023-04-03T16:35:18.206Z,9.38
2023-04-03T16:37:46.918Z,9.42
2023-04-03T16:40:15.583Z,9.02
2023-04-03T16:42:44.376Z,9.16
2023-04-03T16:45:14.502Z,8.80
2023-04-03T16:47:43.401Z,8.32
2023-04-03T16:50:12.702Z,8.59
2023-04-03T16:52:41.359Z,8.72
2023-04-03T16:55:10.571Z,8.25
2023-04-03T16:57:39.192Z,8.68
2023-04-03T17:00:09.714Z,8.67
2023-04-03T17:02:39.747Z,8.49
2023-04-03T17:05:09.137Z,9.36
2023-04-03T17:07:37.753Z,9.04
2023-04-03T17:10:07.314Z,8.85
2023-04-03T17:12:35.966Z,8.01
2023-04-03T17:15:04.780Z,7.88
2023-04-03T17:17:33.947Z,8.34
2023-04-03T17:20:04.550Z,8.26
2023-04-03T17:22:33.541Z,8.64
2023-04-03T17:25:02.215Z,7.93
2023-04-03T17:27:30.816Z,8.69
2023-04-03T17:29:59.778Z,8.71
2023-04-03T17:32:28.388Z,8.14
2023-04-03T17:34:56.968Z,8.04
2023-04-03T17:37:26.973Z,8.92
2023-04-03T17:39:55.525Z,8.39
2023-04-03T17:42:24.132Z,7.86
2023-04-03T17:44:52.666Z,7.85
2023-04-03T17:47:21.233Z,9.23
2023-04-03T17:49:51.547Z,9.24
2023-04-03T17:52:20.163Z,9.16
2023-04-03T17:54:50.277Z,8.32
2023-04-03T17:57:19.062Z,7.91
2023-04-03T17:59:47.954Z,8.37
2023-04-03T18:02:16.695Z,8.26
2023-04-03T18:04:45.285Z,8.40
2023-04-03T18:07:13.983Z,8.06
2023-04-03T18:09:42.868Z,8.21
2023-04-03T18:12:12.888Z,8.17
2023-04-03T18:14:42.363Z,8.22
2023-04-03T18:17:11.055Z,7.53
2023-04-03T18:19:39.870Z,7.77
2023-04-03T18:22:13.528Z,7.73
2023-04-03T18:24:43.864Z,8.39
2023-04-03T18:27:16.128Z,8.34
2023-04-03T18:29:47.307Z,7.80
2023-04-03T18:32:18.769Z,8.32
2023-04-03T18:34:47.324Z,7.86
2023-04-03T18:37:16.515Z,8.40
2023-04-03T18:39:45.196Z,8.42
2023-04-03T18:42:18.067Z,7.72
2023-04-03T18:44:49.211Z,8.84
2023-04-03T18:47:17.914Z,9.31
2023-04-03T18:49:46.965Z,9.46
2023-04-03T18:52:15.765Z,8.98
2023-04-03T18:54:44.677Z,8.41
2023-04-03T18:57:14.613Z,9.02
2023-04-03T18:59:43.162Z,9.79
2023-04-03T19:02:12.849Z,9.81
2023-04-03T19:04:42.126Z,8.37
2023-04-03T19:07:11.944Z,7.24
2023-04-03T19:09:41.248Z,8.39
2023-04-03T19:12:10.099Z,9.41
2023-04-03T19:14:40.028Z,8.82
2023-04-03T19:17:09.079Z,8.44
2023-04-03T19:19:37.627Z,8.92
2023-04-03T19:22:07.744Z,9.30
2023-04-03T19:24:36.609Z,9.67
2023-04-03T19:27:05.397Z,9.96
2023-04-03T19:29:33.953Z,10.26
2023-04-03T19:32:03.907Z,10.22
2023-04-03T19:34:32.476Z,10.17
2023-04-03T19:37:01.083Z,10.22
2023-04-03T19:39:31.450Z,10.19
2023-04-03T19:42:00.163Z,9.79
2023-04-03T19:44:28.747Z,9.63
2023-04-03T19:46:57.405Z,10.04
2023-04-03T19:49:27.550Z,9.97
2023-04-03T19:51:56.571Z,9.92
2023-04-03T19:54:25.522Z,10.06
2023-04-03T19:56:54.132Z,9.84
2023-04-03T19:59:22.765Z,10.07
2023-04-03T20:01:51.477Z,9.96
2023-04-03T20:04:20.197Z,9.71
2023-04-03T20:06:50.845Z,9.47
2023-04-03T20:09:21.385Z,9.66
2023-04-03T20:11:50.947Z,9.69
2023-04-03T20:14:20.678Z,9.58
2023-04-03T20:16:49.763Z,9.07
2023-04-03T20:19:19.188Z,8.83
2023-04-03T20:21:50.229Z,9.57
2023-04-03T20:24:18.792Z,8.00
2023-04-03T20:26:47.809Z,8.95
2023-04-03T20:29:16.964Z,8.68
2023-04-03T20:31:46.838Z,9.47
2023-04-03T20:34:16.166Z,9.79
2023-04-03T20:36:49.122Z,9.95
2023-04-03T20:39:24.112Z,9.57
2023-04-03T20:41:52.896Z,9.56
2023-04-03T20:44:21.874Z,9.56
2023-04-03T20:46:53.347Z,9.34
2023-04-03T20:49:22.911Z,9.37
2023-04-03T20:51:52.288Z,9.75
2023-04-03T20:54:23.380Z,9.99
2023-04-03T20:56:52.782Z,9.66
2023-04-03T20:59:22.748Z,9.72
2023-04-03T21:01:51.512Z,9.82
2023-04-03T21:04:24.767Z,9.97
2023-04-03T21:07:30.796Z,10.03
2023-04-03T21:10:37.429Z,10.03
2023-04-03T21:13:43.284Z,10.00
2023-04-03T21:16:11.905Z,10.01
2023-04-03T21:19:03.535Z,10.06
2023-04-03T21:21:32.120Z,10.00
2023-04-03T21:24:02.275Z,9.65
2023-04-03T21:26:31.239Z,9.91
2023-04-03T21:29:00.002Z,9.83
2023-04-03T21:31:49.873Z,9.23
2023-04-03T21:34:21.058Z,8.33
2023-04-03T21:36:51.575Z,8.29
2023-04-03T21:39:20.371Z,8.81
2023-04-03T21:41:49.826Z,8.92
2023-04-03T21:44:18.527Z,8.98
2023-04-03T21:46:49.408Z,8.99
2023-04-03T21:49:19.507Z,9.43
2023-04-03T21:51:48.070Z,9.20
2023-04-03T21:54:16.989Z,9.12
2023-04-03T21:56:47.969Z,9.25
2023-04-03T21:59:16.904Z,9.58
2023-04-03T22:01:45.957Z,9.56
2023-04-03T22:04:15.658Z,9.74
2023-04-03T22:06:45.881Z,9.55
2023-04-03T22:09:14.513Z,9.67
2023-04-03T22:11:46.138Z,9.74
2023-04-03T22:14:14.805Z,9.73
2023-04-03T22:16:46.709Z,9.66
2023-04-03T22:19:15.418Z,9.66
2023-04-03T22:21:45.394Z,9.67
2023-04-03T22:24:14.973Z,9.72
2023-04-03T22:26:44.699Z,9.74
2023-04-03T22:29:13.896Z,9.75
2023-04-03T22:31:42.792Z,9.72
2023-04-03T22:34:11.724Z,9.69
2023-04-03T22:36:43.109Z,9.66
2023-04-03T22:39:15.248Z,9.64
2023-04-03T22:41:45.427Z,9.61
2023-04-03T22:44:14.294Z,9.60
2023-04-03T22:46:42.915Z,9.63
2023-04-03T22:49:12.095Z,9.57
2023-04-03T22:51:40.663Z,9.58
2023-04-03T22:54:09.270Z,9.58
2023-04-03T22:56:39.173Z,9.58
2023-04-03T22:59:08.029Z,9.55
2023-04-03T23:01:39.234Z,9.54
2023-04-03T23:04:08.234Z,9.51
2023-04-03T23:06:36.873Z,9.26
2023-04-03T23:09:05.647Z,9.26
2023-04-03T23:11:34.213Z,9.25
2023-04-03T23:14:04.157Z,9.40
2023-04-03T23:16:32.892Z,9.49
2023-04-03T23:19:01.862Z,9.44
2023-04-03T23:21:30.469Z,9.44
2023-04-03T23:23:59.158Z,9.41
2023-04-03T23:26:27.738Z,9.40
2023-04-03T23:28:56.385Z,9.40
2023-04-03T23:31:26.582Z,9.42
2023-04-03T23:33:55.095Z,9.42
2023-04-03T23:36:23.663Z,9.38
2023-04-03T23:38:52.333Z,9.36
2023-04-03T23:41:21.425Z,9.17
2023-04-03T23:43:50.381Z,9.34
2023-04-03T23:46:19.865Z,9.31
2023-04-03T23:48:50.198Z,9.27
2023-04-03T23:51:18.788Z,9.30
2023-04-03T23:53:47.333Z,9.33
2023-04-03T23:56:15.984Z,9.27
2023-04-03T23:58:44.551Z,9.24
